createdAt,value
2019-05-13T00:00:25.850Z,98.90
2019-05-13T00:00:58.504Z,99.20
2019-05-13T00:01:31.126Z,99.40
2019-05-13T00:02:04.658Z,99.40
2019-05-13T00:02:39.988Z,99.30
2019-05-13T00:03:13.626Z,99.10
2019-05-13T00:03:46.470Z,99.00
2019-05-13T00:04:19.101Z,99.00
2019-05-13T00:04:53.214Z,99.30
2019-05-13T00:05:26.421Z,99.40
2019-05-13T00:05:59.098Z,99.60
2019-05-13T00:06:34.255Z,99.70
2019-05-13T00:07:06.208Z,99.80
2019-05-13T00:07:43.674Z,99.80
2019-05-13T00:08:15.911Z,99.90
2019-05-13T00:08:48.862Z,99.90
2019-05-13T00:09:21.533Z,99.90
2019-05-13T00:09:54.442Z,99.90
2019-05-13T00:10:27.116Z,99.70
2019-05-13T00:10:59.747Z,99.50
2019-05-13T00:11:34.610Z,99.70
2019-05-13T00:12:07.212Z,99.40
2019-05-13T00:12:43.920Z,98.80
2019-05-13T00:13:16.321Z,98.60
2019-05-13T00:13:48.950Z,98.50
2019-05-13T00:14:23.902Z,98.80
2019-05-13T00:14:56.405Z,98.60
2019-05-13T00:15:29.820Z,98.50
2019-05-13T00:16:03.693Z,98.50
2019-05-13T00:16:36.963Z,98.60
2019-05-13T00:17:09.988Z,98.60
2019-05-13T00:17:44.665Z,98.50
2019-05-13T00:18:17.762Z,98.50
2019-05-13T00:18:50.755Z,98.30
2019-05-13T00:19:23.475Z,98.30
2019-05-13T00:19:56.135Z,98.50
2019-05-13T00:20:29.131Z,98.50
2019-05-13T00:21:03.652Z,98.60
2019-05-13T00:21:36.660Z,98.60
2019-05-13T00:22:10.874Z,98.70
2019-05-13T00:22:44.834Z,98.70
2019-05-13T00:23:18.063Z,98.60
2019-05-13T00:23:50.703Z,98.60
2019-05-13T00:24:24.298Z,98.60
2019-05-13T00:24:57.590Z,98.70
2019-05-13T00:25:30.230Z,98.70
2019-05-13T00:26:03.818Z,98.60
2019-05-13T00:26:36.690Z,98.70
2019-05-13T00:27:09.603Z,98.90
2019-05-13T00:27:44.378Z,98.90
2019-05-13T00:28:16.730Z,99.00
2019-05-13T00:28:49.719Z,98.80
2019-05-13T00:29:23.494Z,98.70
2019-05-13T00:29:56.655Z,98.80
2019-05-13T00:30:29.299Z,98.70
2019-05-13T00:31:03.427Z,98.70
2019-05-13T00:31:36.185Z,98.80
2019-05-13T00:32:09.191Z,98.90
2019-05-13T00:32:44.305Z,98.80
2019-05-13T00:33:16.326Z,98.80
2019-05-13T00:33:48.958Z,98.80
2019-05-13T00:34:21.600Z,98.80
2019-05-13T00:34:54.924Z,98.80
2019-05-13T00:35:27.572Z,98.80
2019-05-13T00:36:00.566Z,98.80
2019-05-13T00:36:33.730Z,98.60
2019-05-13T00:37:11.248Z,98.70
2019-05-13T00:37:44.326Z,98.80
2019-05-13T00:38:17.208Z,98.70
2019-05-13T00:38:49.883Z,98.60
2019-05-13T00:39:24.614Z,98.70
2019-05-13T00:39:57.351Z,98.90
2019-05-13T00:40:29.982Z,99.20
2019-05-13T00:41:03.748Z,98.90
2019-05-13T00:41:36.545Z,99.50
2019-05-13T00:42:09.176Z,99.20
2019-05-13T00:42:44.203Z,98.90
2019-05-13T00:43:16.594Z,98.70
2019-05-13T00:43:49.231Z,98.60
2019-05-13T00:44:24.284Z,98.60
2019-05-13T00:44:56.675Z,98.30
2019-05-13T00:45:29.331Z,98.20
2019-05-13T00:46:03.863Z,98.10
2019-05-13T00:46:36.711Z,98.20
2019-05-13T00:47:10.058Z,98.10
2019-05-13T00:47:43.694Z,98.10
2019-05-13T00:48:16.567Z,98.10
2019-05-13T00:48:49.197Z,98.20
2019-05-13T00:49:23.903Z,98.20
2019-05-13T00:49:56.676Z,98.10
2019-05-13T00:50:30.039Z,98.30
2019-05-13T00:51:03.790Z,98.20
2019-05-13T00:51:36.723Z,98.20
2019-05-13T00:52:09.697Z,98.30
2019-05-13T00:52:44.546Z,98.40
2019-05-13T00:53:17.211Z,98.50
2019-05-13T00:53:49.806Z,98.30
2019-05-13T00:54:23.683Z,98.00
2019-05-13T00:54:56.810Z,98.10
2019-05-13T00:55:29.646Z,98.10
2019-05-13T00:56:04.008Z,98.10
2019-05-13T00:56:36.785Z,98.10
2019-05-13T00:57:09.763Z,98.10
2019-05-13T00:57:43.715Z,98.40
2019-05-13T00:58:17.214Z,98.20
2019-05-13T00:58:49.851Z,98.20
2019-05-13T00:59:24.236Z,98.30
2019-05-13T00:59:57.359Z,98.30
2019-05-13T01:00:30.772Z,98.40
2019-05-13T01:01:03.770Z,98.20
2019-05-13T01:01:36.583Z,98.40
2019-05-13T01:02:09.243Z,98.80
2019-05-13T01:02:44.346Z,98.60
2019-05-13T01:03:16.968Z,98.60
2019-05-13T01:03:49.619Z,98.50
2019-05-13T01:04:23.226Z,98.40
2019-05-13T01:04:55.998Z,98.40
2019-05-13T01:05:28.632Z,98.70
2019-05-13T01:06:04.011Z,98.80
2019-05-13T01:06:36.048Z,98.90
2019-05-13T01:07:24.477Z,98.50
2019-05-13T01:07:44.422Z,98.20
2019-05-13T01:08:17.690Z,98.30
2019-05-13T01:08:50.346Z,98.50
2019-05-13T01:09:23.727Z,98.30
2019-05-13T01:09:56.515Z,98.10
2019-05-13T01:10:29.479Z,98.10
2019-05-13T01:11:04.315Z,98.20
2019-05-13T01:11:36.585Z,98.00
2019-05-13T01:12:09.696Z,98.10
2019-05-13T01:12:44.055Z,98.30
2019-05-13T01:13:17.857Z,98.40
2019-05-13T01:13:50.499Z,98.50
2019-05-13T01:14:23.524Z,98.30
2019-05-13T01:14:56.303Z,98.40
2019-05-13T01:15:28.976Z,98.50
2019-05-13T01:16:03.685Z,98.30
2019-05-13T01:16:36.584Z,98.30
2019-05-13T01:17:09.248Z,98.30
2019-05-13T01:17:44.483Z,98.30
2019-05-13T01:18:16.365Z,98.40
2019-05-13T01:18:49.399Z,98.40
2019-05-13T01:19:23.727Z,98.50
2019-05-13T01:19:56.914Z,98.50
2019-05-13T01:20:29.922Z,98.40
2019-05-13T01:21:04.396Z,98.30
2019-05-13T01:21:37.193Z,98.20
2019-05-13T01:22:10.093Z,98.20
2019-05-13T01:22:44.053Z,98.10
2019-05-13T01:23:17.061Z,98.10
2019-05-13T01:23:50.113Z,98.10
2019-05-13T01:24:24.407Z,98.20
2019-05-13T01:24:57.691Z,98.00
2019-05-13T01:25:30.352Z,98.00
2019-05-13T01:26:03.875Z,98.00
2019-05-13T01:26:36.839Z,98.20
2019-05-13T01:27:09.484Z,98.20
2019-05-13T01:27:44.194Z,98.00
2019-05-13T01:28:16.833Z,98.10
2019-05-13T01:28:50.184Z,98.00
2019-05-13T01:29:23.837Z,98.20
2019-05-13T01:29:56.856Z,98.40
2019-05-13T01:30:29.976Z,98.30
2019-05-13T01:31:04.162Z,98.10
2019-05-13T01:31:37.394Z,98.00
2019-05-13T01:32:10.032Z,98.00
2019-05-13T01:32:44.869Z,98.00
2019-05-13T01:33:17.133Z,98.00
2019-05-13T01:33:49.768Z,97.90
2019-05-13T01:34:23.558Z,97.90
2019-05-13T01:34:57.130Z,98.00
2019-05-13T01:35:30.188Z,98.00
2019-05-13T01:36:05.273Z,98.00
2019-05-13T01:36:37.751Z,98.10
2019-05-13T01:37:10.371Z,98.30
2019-05-13T01:37:45.916Z,98.20
2019-05-13T01:38:17.840Z,98.10
2019-05-13T01:38:50.793Z,98.00
2019-05-13T01:39:24.289Z,98.10
2019-05-13T01:39:57.628Z,98.20
2019-05-13T01:40:30.273Z,98.50
2019-05-13T01:41:04.413Z,98.40
2019-05-13T01:41:37.782Z,98.80
2019-05-13T01:42:10.420Z,98.60
2019-05-13T01:42:44.388Z,98.10
2019-05-13T01:43:17.719Z,98.00
2019-05-13T01:43:50.376Z,98.30
2019-05-13T01:44:24.453Z,98.10
2019-05-13T01:44:57.138Z,98.20
2019-05-13T01:45:29.810Z,98.00
2019-05-13T01:46:04.409Z,98.00
2019-05-13T01:46:37.714Z,98.30
2019-05-13T01:47:10.342Z,98.50
2019-05-13T01:47:44.180Z,98.10
2019-05-13T01:48:16.958Z,97.90
2019-05-13T01:48:49.901Z,97.90
2019-05-13T01:49:24.106Z,98.00
2019-05-13T01:49:56.888Z,98.30
2019-05-13T01:50:29.843Z,98.50
2019-05-13T01:51:03.763Z,98.50
2019-05-13T01:51:37.062Z,98.60
2019-05-13T01:52:09.659Z,98.30
2019-05-13T01:52:44.308Z,98.50
2019-05-13T01:53:16.746Z,98.70
2019-05-13T01:53:49.787Z,98.40
2019-05-13T01:54:24.687Z,98.50
2019-05-13T01:54:57.196Z,98.30
2019-05-13T01:55:29.821Z,98.30
2019-05-13T01:56:03.892Z,98.20
2019-05-13T01:56:36.832Z,98.50
2019-05-13T01:57:09.459Z,98.40
2019-05-13T01:57:44.035Z,98.30
2019-05-13T01:58:16.894Z,98.10
2019-05-13T01:58:50.247Z,98.20
2019-05-13T01:59:23.980Z,98.00
2019-05-13T01:59:56.958Z,97.70
2019-05-13T02:00:29.603Z,97.70
2019-05-13T02:01:05.122Z,98.00
2019-05-13T02:01:37.739Z,97.80
2019-05-13T02:02:10.419Z,97.80
2019-05-13T02:02:44.475Z,98.20
2019-05-13T02:03:17.363Z,98.40
2019-05-13T02:03:50.015Z,98.20
2019-05-13T02:04:24.438Z,98.20
2019-05-13T02:04:57.709Z,98.30
2019-05-13T02:05:30.342Z,97.80
2019-05-13T02:06:03.742Z,97.90
2019-05-13T02:06:36.725Z,98.00
2019-05-13T02:07:09.384Z,98.00
2019-05-13T02:07:56.108Z,98.10
2019-05-13T02:08:16.514Z,97.90
2019-05-13T02:08:49.152Z,98.10
2019-05-13T02:09:21.791Z,97.90
2019-05-13T02:09:54.744Z,98.00
2019-05-13T02:10:45.766Z,98.10
2019-05-13T02:11:19.131Z,98.00
2019-05-13T02:11:53.798Z,97.90
2019-05-13T02:12:26.216Z,97.80
2019-05-13T02:12:58.874Z,97.70
2019-05-13T02:13:34.071Z,97.90
2019-05-13T02:14:06.364Z,98.10
2019-05-13T02:14:38.990Z,98.40
2019-05-13T02:15:14.315Z,98.70
2019-05-13T02:15:47.337Z,98.90
2019-05-13T02:16:19.976Z,99.00
2019-05-13T02:16:53.570Z,99.10
2019-05-13T02:17:26.362Z,99.00
2019-05-13T02:17:59.319Z,99.00
2019-05-13T02:18:34.222Z,98.80
2019-05-13T02:19:06.499Z,98.90
2019-05-13T02:19:39.871Z,98.80
2019-05-13T02:20:14.778Z,99.00
2019-05-13T02:20:47.557Z,99.10
2019-05-13T02:21:20.168Z,99.10
2019-05-13T02:21:54.327Z,99.30
2019-05-13T02:22:27.164Z,99.30
2019-05-13T02:23:00.220Z,99.40
2019-05-13T02:23:34.027Z,99.50
2019-05-13T02:24:06.843Z,99.60
2019-05-13T02:24:40.538Z,99.80
2019-05-13T02:25:14.027Z,99.90
2019-05-13T02:25:47.591Z,99.90
2019-05-13T02:26:20.237Z,99.90
2019-05-13T02:26:54.344Z,99.90
2019-05-13T02:27:27.005Z,99.90
2019-05-13T02:27:59.660Z,99.90
2019-05-13T02:28:33.426Z,99.90
2019-05-13T02:29:06.563Z,99.90
2019-05-13T02:29:39.235Z,99.90
2019-05-13T02:30:15.561Z,99.90
2019-05-13T02:30:46.591Z,99.90
2019-05-13T02:31:31.924Z,99.90
2019-05-13T02:31:56.327Z,99.90
2019-05-13T02:32:32.632Z,99.90
2019-05-13T02:33:03.333Z,99.90
2019-05-13T02:33:35.983Z,99.90
2019-05-13T02:34:08.639Z,99.90
2019-05-13T02:34:43.652Z,99.90
2019-05-13T02:35:16.510Z,99.90
2019-05-13T02:35:52.705Z,99.90
2019-05-13T02:36:23.714Z,99.90
2019-05-13T02:36:56.344Z,99.90
2019-05-13T02:37:29.717Z,99.90
2019-05-13T02:38:18.487Z,99.90
2019-05-13T02:38:37.828Z,99.90
2019-05-13T02:39:12.952Z,99.90
2019-05-13T02:39:45.379Z,99.90
2019-05-13T02:40:18.411Z,99.90
2019-05-13T02:40:52.611Z,99.90
2019-05-13T02:41:25.678Z,99.90
2019-05-13T02:41:58.307Z,99.90
2019-05-13T02:42:32.790Z,99.90
2019-05-13T02:43:05.638Z,99.90
2019-05-13T02:43:41.241Z,99.90
2019-05-13T02:44:13.092Z,99.90
2019-05-13T02:44:46.091Z,99.90
2019-05-13T02:45:18.813Z,99.90
2019-05-13T02:45:53.217Z,99.90
2019-05-13T02:46:26.312Z,99.90
2019-05-13T02:46:58.934Z,99.90
2019-05-13T02:47:33.109Z,99.90
2019-05-13T02:48:05.920Z,99.90
2019-05-13T02:48:38.550Z,99.90
2019-05-13T02:49:12.178Z,99.90
2019-05-13T02:49:45.418Z,99.90
2019-05-13T02:50:18.429Z,99.90
2019-05-13T02:50:52.943Z,99.90
2019-05-13T02:51:25.502Z,99.90
2019-05-13T02:51:58.183Z,99.90
2019-05-13T02:52:33.432Z,99.90
2019-05-13T02:53:05.322Z,99.90
2019-05-13T02:53:38.355Z,99.90
2019-05-13T02:54:12.383Z,99.90
2019-05-13T02:54:45.368Z,99.90
2019-05-13T02:55:18.317Z,99.90
2019-05-13T02:55:52.275Z,99.90
2019-05-13T02:56:25.899Z,99.90
2019-05-13T02:56:58.923Z,99.90
2019-05-13T02:57:32.713Z,99.90
2019-05-13T02:58:05.734Z,99.90
2019-05-13T02:58:38.341Z,99.90
2019-05-13T02:59:13.043Z,99.90
2019-05-13T02:59:45.412Z,99.90
2019-05-13T03:00:18.444Z,99.90
2019-05-13T03:00:53.402Z,99.90
2019-05-13T03:01:25.521Z,99.90
2019-05-13T03:01:58.547Z,99.90
2019-05-13T03:02:32.799Z,99.90
2019-05-13T03:03:05.685Z,99.90
2019-05-13T03:03:38.301Z,99.90
2019-05-13T03:04:13.236Z,99.90
2019-05-13T03:04:45.772Z,99.90
2019-05-13T03:05:21.788Z,99.90
2019-05-13T03:05:53.797Z,99.90
2019-05-13T03:06:26.605Z,99.90
2019-05-13T03:07:02.672Z,99.90
2019-05-13T03:07:34.407Z,99.90
2019-05-13T03:08:07.054Z,99.90
2019-05-13T03:08:48.819Z,99.90
2019-05-13T03:09:14.445Z,99.90
2019-05-13T03:09:47.107Z,99.90
2019-05-13T03:10:22.159Z,99.90
2019-05-13T03:10:54.259Z,99.90
2019-05-13T03:11:26.920Z,99.90
2019-05-13T03:12:03.497Z,99.90
2019-05-13T03:12:34.005Z,99.90
2019-05-13T03:13:07.332Z,99.90
2019-05-13T03:13:42.579Z,99.90
2019-05-13T03:14:14.856Z,99.90
2019-05-13T03:14:48.639Z,99.90
2019-05-13T03:15:23.141Z,99.90
2019-05-13T03:16:13.194Z,99.90
2019-05-13T03:16:55.617Z,99.90
2019-05-13T03:17:33.621Z,99.90
2019-05-13T03:18:07.214Z,99.90
2019-05-13T03:18:43.216Z,99.90
2019-05-13T03:19:14.607Z,99.90
2019-05-13T03:19:47.958Z,99.90
2019-05-13T03:20:22.831Z,99.90
2019-05-13T03:20:55.729Z,99.90
2019-05-13T03:21:28.726Z,99.90
2019-05-13T03:22:02.980Z,99.90
2019-05-13T03:22:36.228Z,99.90
2019-05-13T03:23:08.859Z,99.90
2019-05-13T03:23:44.152Z,99.90
2019-05-13T03:24:15.997Z,99.90
2019-05-13T03:24:52.138Z,99.90
2019-05-13T03:25:23.331Z,99.90
2019-05-13T03:25:56.074Z,99.90
2019-05-13T03:26:32.022Z,99.90
2019-05-13T03:27:03.168Z,99.90
2019-05-13T03:27:35.767Z,99.90
2019-05-13T03:28:08.776Z,99.90
2019-05-13T03:28:43.596Z,99.90
2019-05-13T03:29:16.312Z,99.90
2019-05-13T03:29:49.065Z,99.90
2019-05-13T03:30:25.315Z,99.90
2019-05-13T03:30:57.417Z,99.90
2019-05-13T03:31:35.637Z,99.90
2019-05-13T03:32:06.487Z,99.90
2019-05-13T03:32:46.082Z,99.90
2019-05-13T03:33:19.373Z,99.90
2019-05-13T03:33:48.071Z,99.90
2019-05-13T03:34:25.441Z,99.90
2019-05-13T03:34:56.809Z,99.90
2019-05-13T03:35:35.835Z,99.90
2019-05-13T03:36:06.932Z,99.90
2019-05-13T03:36:44.901Z,99.90
2019-05-13T03:37:15.358Z,99.90
2019-05-13T03:37:48.596Z,99.90
2019-05-13T03:38:22.637Z,99.90
2019-05-13T03:39:05.649Z,99.90
2019-05-13T03:39:33.209Z,99.90
2019-05-13T03:40:06.336Z,99.90
2019-05-13T03:40:42.577Z,99.90
2019-05-13T03:41:16.879Z,99.90
2019-05-13T03:41:53.048Z,99.90
2019-05-13T03:42:26.822Z,99.90
2019-05-13T03:43:02.797Z,99.90
2019-05-13T03:43:38.375Z,99.90
2019-05-13T03:44:13.487Z,99.90
2019-05-13T03:44:52.282Z,99.90
2019-05-13T03:45:24.202Z,99.90
2019-05-13T03:45:59.327Z,99.90
2019-05-13T03:46:35.975Z,99.90
2019-05-13T03:47:12.648Z,99.90
2019-05-13T03:47:47.791Z,99.90
2019-05-13T03:48:23.663Z,99.90
2019-05-13T03:49:02.136Z,99.90
2019-05-13T03:49:35.719Z,99.90
2019-05-13T03:50:08.371Z,99.90
2019-05-13T03:50:43.402Z,99.90
2019-05-13T03:51:15.875Z,99.90
2019-05-13T03:51:53.213Z,99.90
2019-05-13T03:52:25.459Z,99.90
2019-05-13T03:52:58.106Z,99.90
2019-05-13T03:53:32.496Z,99.90
2019-05-13T03:54:05.715Z,99.90
2019-05-13T03:54:39.131Z,99.90
2019-05-13T03:55:13.012Z,99.90
2019-05-13T03:55:48.079Z,99.90
2019-05-13T03:56:23.585Z,99.90
2019-05-13T03:56:55.944Z,99.90
2019-05-13T03:57:29.297Z,99.90
2019-05-13T03:58:03.001Z,99.90
2019-05-13T03:58:36.598Z,99.90
2019-05-13T03:59:09.243Z,99.90
2019-05-13T03:59:43.575Z,99.90
2019-05-13T04:00:16.439Z,99.90
2019-05-13T04:00:51.793Z,99.90
2019-05-13T04:01:23.835Z,99.90
2019-05-13T04:01:56.852Z,99.90
2019-05-13T04:02:32.376Z,99.90
2019-05-13T04:03:04.309Z,99.90
2019-05-13T04:03:37.309Z,99.90
2019-05-13T04:04:12.639Z,99.90
2019-05-13T04:04:45.408Z,99.90
2019-05-13T04:05:18.050Z,99.90
2019-05-13T04:05:52.678Z,99.90
2019-05-13T04:06:25.792Z,99.90
2019-05-13T04:07:02.282Z,99.90
2019-05-13T04:07:33.353Z,99.90
2019-05-13T04:08:06.343Z,99.90
2019-05-13T04:08:39.075Z,99.90
2019-05-13T04:09:25.121Z,99.90
2019-05-13T04:09:46.289Z,99.90
2019-05-13T04:10:22.395Z,99.90
2019-05-13T04:10:53.473Z,99.90
2019-05-13T04:11:26.265Z,99.90
2019-05-13T04:11:58.998Z,99.90
2019-05-13T04:12:33.327Z,99.90
2019-05-13T04:13:06.364Z,99.90
2019-05-13T04:13:42.558Z,99.90
2019-05-13T04:14:14.617Z,99.90
2019-05-13T04:14:47.278Z,99.90
2019-05-13T04:15:23.566Z,99.90
2019-05-13T04:15:55.155Z,99.90
2019-05-13T04:16:27.802Z,99.90
2019-05-13T04:17:02.958Z,99.90
2019-05-13T04:17:35.011Z,99.90
2019-05-13T04:18:07.856Z,99.90
2019-05-13T04:18:42.633Z,99.90
2019-05-13T04:19:15.789Z,99.90
2019-05-13T04:19:52.761Z,99.90
2019-05-13T04:20:23.894Z,99.90
2019-05-13T04:20:56.881Z,99.90
2019-05-13T04:21:33.512Z,99.90
2019-05-13T04:22:04.257Z,99.90
2019-05-13T04:22:36.892Z,99.90
2019-05-13T04:23:12.561Z,99.90
2019-05-13T04:23:44.347Z,99.90
2019-05-13T04:24:17.091Z,99.90
2019-05-13T04:24:52.751Z,99.90
2019-05-13T04:25:24.290Z,99.90
2019-05-13T04:26:02.570Z,99.90
2019-05-13T04:26:33.790Z,99.90
2019-05-13T04:27:15.616Z,99.90
2019-05-13T04:27:52.470Z,99.90
2019-05-13T04:28:32.731Z,99.90
2019-05-13T04:29:04.466Z,99.90
2019-05-13T04:29:43.153Z,99.90
2019-05-13T04:30:15.902Z,99.90
2019-05-13T04:30:52.369Z,99.90
2019-05-13T04:31:23.870Z,99.90
2019-05-13T04:31:57.509Z,99.90
2019-05-13T04:32:33.333Z,99.90
2019-05-13T04:33:04.767Z,99.90
2019-05-13T04:33:38.140Z,99.90
2019-05-13T04:34:12.337Z,99.90
2019-05-13T04:34:45.645Z,99.90
2019-05-13T04:35:18.283Z,99.90
2019-05-13T04:35:52.939Z,99.90
2019-05-13T04:36:25.888Z,99.90
2019-05-13T04:37:02.138Z,99.90
2019-05-13T04:37:33.619Z,99.90
2019-05-13T04:38:09.266Z,99.90
2019-05-13T04:38:43.945Z,99.90
2019-05-13T04:39:15.236Z,99.90
2019-05-13T04:39:54.782Z,99.90
2019-05-13T04:40:23.474Z,99.90
2019-05-13T04:40:56.501Z,99.90
2019-05-13T04:41:29.460Z,99.90
2019-05-13T04:42:02.580Z,99.90
2019-05-13T04:42:35.533Z,99.90
2019-05-13T04:43:08.160Z,99.90
2019-05-13T04:43:43.778Z,99.90
2019-05-13T04:44:15.669Z,99.90
2019-05-13T04:44:48.351Z,99.90
2019-05-13T04:45:23.916Z,99.90
2019-05-13T04:45:55.432Z,99.90
2019-05-13T04:46:28.068Z,99.90
2019-05-13T04:47:03.654Z,99.90
2019-05-13T04:47:35.687Z,99.90
2019-05-13T04:48:08.512Z,99.90
2019-05-13T04:48:44.085Z,99.90
2019-05-13T04:49:15.980Z,99.90
2019-05-13T04:49:48.623Z,99.90
2019-05-13T04:50:22.334Z,99.90
2019-05-13T04:50:55.763Z,99.90
2019-05-13T04:51:28.582Z,99.90
2019-05-13T04:52:03.407Z,99.90
2019-05-13T04:52:35.921Z,99.90
2019-05-13T04:53:08.550Z,99.90
2019-05-13T04:53:42.489Z,99.90
2019-05-13T04:54:15.716Z,99.90
2019-05-13T04:54:52.502Z,99.90
2019-05-13T04:55:23.779Z,99.90
2019-05-13T04:55:57.117Z,99.90
2019-05-13T04:56:32.722Z,99.90
2019-05-13T04:57:04.218Z,99.90
2019-05-13T04:57:37.166Z,99.90
2019-05-13T04:58:12.665Z,99.90
2019-05-13T04:58:44.235Z,99.90
2019-05-13T04:59:17.217Z,99.90
2019-05-13T04:59:51.747Z,99.90
2019-05-13T05:01:15.045Z,99.90
2019-05-13T05:02:37.419Z,99.90
2019-05-13T05:03:07.449Z,99.90
2019-05-13T05:03:53.164Z,99.90
2019-05-13T05:04:48.851Z,99.90
2019-05-13T05:05:52.460Z,99.90
2019-05-13T05:06:35.195Z,99.90
2019-05-13T05:08:03.130Z,99.90
2019-05-13T05:09:12.316Z,99.90
2019-05-13T05:10:25.933Z,99.90
2019-05-13T05:10:53.891Z,99.60
2019-05-13T05:11:52.945Z,99.60
2019-05-13T05:13:06.409Z,99.60
2019-05-13T05:14:18.112Z,99.30
2019-05-13T05:15:17.423Z,99.20
2019-05-13T05:16:47.251Z,99.10
2019-05-13T05:17:52.427Z,98.50
2019-05-13T05:18:55.289Z,98.10
2019-05-13T05:20:07.482Z,97.20
2019-05-13T05:20:48.826Z,97.20
2019-05-13T05:21:25.699Z,95.90
2019-05-13T05:22:22.173Z,95.20
2019-05-13T05:23:36.219Z,95.10
2019-05-13T05:24:43.003Z,93.50
2019-05-13T05:25:41.646Z,92.20
2019-05-13T05:27:08.075Z,91.20
2019-05-13T05:28:29.093Z,90.70
2019-05-13T05:29:39.106Z,85.80
2019-05-13T05:31:05.728Z,80.60
2019-05-13T05:32:15.372Z,76.80
2019-05-13T05:33:02.956Z,74.50
2019-05-13T05:34:06.448Z,71.20
2019-05-13T05:35:22.761Z,71.50
2019-05-13T05:36:25.799Z,70.10
2019-05-13T05:37:25.912Z,65.40
2019-05-13T05:38:35.618Z,63.00
2019-05-13T05:39:22.727Z,62.10
2019-05-13T05:39:57.649Z,61.70
2019-05-13T05:40:34.739Z,61.70
2019-05-13T05:41:12.101Z,61.90
2019-05-13T05:41:46.515Z,62.10
2019-05-13T05:42:21.623Z,60.30
2019-05-13T05:42:55.786Z,60.20
2019-05-13T05:43:31.483Z,60.40
2019-05-13T05:44:06.383Z,59.70
2019-05-13T05:44:42.173Z,58.20
2019-05-13T05:45:15.295Z,58.60
2019-05-13T05:45:48.446Z,59.20
2019-05-13T05:46:23.931Z,57.30
2019-05-13T05:46:59.021Z,57.00
2019-05-13T05:47:34.285Z,57.80
2019-05-13T05:48:07.331Z,59.10
2019-05-13T05:48:42.570Z,59.50
2019-05-13T05:49:18.221Z,58.70
2019-05-13T05:49:53.102Z,58.20
2019-05-13T05:50:28.437Z,58.40
2019-05-13T05:51:03.031Z,59.00
2019-05-13T05:51:37.988Z,59.00
2019-05-13T05:52:12.382Z,59.80
2019-05-13T05:52:47.778Z,59.40
2019-05-13T05:53:23.647Z,60.00
2019-05-13T05:53:57.419Z,60.40
2019-05-13T05:54:32.762Z,61.50
2019-05-13T05:55:06.011Z,61.70
2019-05-13T05:55:41.189Z,61.50
2019-05-13T05:56:16.642Z,61.30
2019-05-13T05:56:52.802Z,61.40
2019-05-13T05:57:31.237Z,62.10
2019-05-13T05:58:05.663Z,62.40
2019-05-13T05:58:41.948Z,63.20
2019-05-13T05:59:14.671Z,64.00
2019-05-13T05:59:51.731Z,64.70
2019-05-13T06:00:24.748Z,63.60
2019-05-13T06:00:58.382Z,64.10
2019-05-13T06:01:33.142Z,63.90
2019-05-13T06:02:08.278Z,64.50
2019-05-13T06:02:43.327Z,64.10
2019-05-13T06:03:18.296Z,64.70
2019-05-13T06:03:53.591Z,65.80
2019-05-13T06:04:27.527Z,66.10
2019-05-13T06:05:02.633Z,65.50
2019-05-13T06:05:35.892Z,64.40
2019-05-13T06:06:09.161Z,64.50
2019-05-13T06:06:42.687Z,65.30
2019-05-13T06:07:16.093Z,65.90
2019-05-13T06:07:51.441Z,64.90
2019-05-13T06:08:24.320Z,64.60
2019-05-13T06:08:57.786Z,64.70
2019-05-13T06:09:32.245Z,64.60
2019-05-13T06:10:06.465Z,63.60
2019-05-13T06:10:49.191Z,64.40
2019-05-13T06:11:15.556Z,64.50
2019-05-13T06:11:52.176Z,65.40
2019-05-13T06:12:26.556Z,65.40
2019-05-13T06:13:01.810Z,65.90
2019-05-13T06:13:38.161Z,66.50
2019-05-13T06:14:11.349Z,66.70
2019-05-13T06:14:44.365Z,67.50
2019-05-13T06:15:17.214Z,67.60
2019-05-13T06:15:51.388Z,68.40
2019-05-13T06:16:24.253Z,66.50
2019-05-13T06:16:57.057Z,67.20
2019-05-13T06:17:31.942Z,66.90
2019-05-13T06:18:04.692Z,65.60
2019-05-13T06:18:37.743Z,65.60
2019-05-13T06:19:12.109Z,66.00
2019-05-13T06:19:45.000Z,65.90
2019-05-13T06:20:17.846Z,66.60
2019-05-13T06:20:51.304Z,65.40
2019-05-13T06:21:24.585Z,64.90
2019-05-13T06:21:57.327Z,64.80
2019-05-13T06:22:31.931Z,64.70
2019-05-13T06:23:04.439Z,64.80
2019-05-13T06:23:37.127Z,65.80
2019-05-13T06:24:11.689Z,66.20
2019-05-13T06:24:44.603Z,67.10
2019-05-13T06:25:17.296Z,66.80
2019-05-13T06:25:52.395Z,66.90
2019-05-13T06:26:24.428Z,66.60
2019-05-13T06:26:57.070Z,66.60
2019-05-13T06:27:31.763Z,66.40
2019-05-13T06:28:04.903Z,67.20
2019-05-13T06:28:37.965Z,65.40
2019-05-13T06:29:11.637Z,65.00
2019-05-13T06:29:44.938Z,65.70
2019-05-13T06:30:18.347Z,66.40
2019-05-13T06:30:51.995Z,66.50
2019-05-13T06:31:24.835Z,66.40
2019-05-13T06:32:13.008Z,67.00
2019-05-13T06:32:32.611Z,67.70
2019-05-13T06:33:05.297Z,68.80
2019-05-13T06:33:38.663Z,66.20
2019-05-13T06:34:12.586Z,64.80
2019-05-13T06:34:45.569Z,64.60
2019-05-13T06:35:18.501Z,64.10
2019-05-13T06:35:52.110Z,63.40
2019-05-13T06:36:25.751Z,64.00
2019-05-13T06:36:58.822Z,64.60
2019-05-13T06:37:32.204Z,65.00
2019-05-13T06:38:05.006Z,64.20
2019-05-13T06:38:37.650Z,63.60
2019-05-13T06:39:12.319Z,64.50
2019-05-13T06:39:45.851Z,65.20
2019-05-13T06:40:18.490Z,65.10
2019-05-13T06:41:00.487Z,64.40
2019-05-13T06:41:25.868Z,65.10
2019-05-13T06:41:58.526Z,64.90
2019-05-13T06:42:32.462Z,63.70
2019-05-13T06:43:05.599Z,62.60
2019-05-13T06:43:38.299Z,62.80
2019-05-13T06:44:12.193Z,63.50
2019-05-13T06:44:45.021Z,64.40
2019-05-13T06:45:17.672Z,64.00
2019-05-13T06:45:51.369Z,63.70
2019-05-13T06:46:24.422Z,63.00
2019-05-13T06:46:57.117Z,63.00
2019-05-13T06:47:32.143Z,64.10
2019-05-13T06:48:05.152Z,63.90
2019-05-13T06:48:37.823Z,63.10
2019-05-13T06:49:12.149Z,62.70
2019-05-13T06:49:45.399Z,63.10
2019-05-13T06:50:18.507Z,63.60
2019-05-13T06:50:52.094Z,64.20
2019-05-13T06:51:25.454Z,63.00
2019-05-13T06:52:01.452Z,61.80
2019-05-13T06:52:33.737Z,62.00
2019-05-13T06:53:08.556Z,61.40
2019-05-13T06:53:41.543Z,63.00
2019-05-13T06:54:14.468Z,63.00
2019-05-13T06:54:47.135Z,59.80
2019-05-13T06:55:21.251Z,61.10
2019-05-13T06:55:54.767Z,60.50
2019-05-13T06:56:27.418Z,60.30
2019-05-13T06:57:04.275Z,59.70
2019-05-13T06:57:34.493Z,60.30
2019-05-13T06:58:07.470Z,60.30
2019-05-13T06:58:41.489Z,61.30
2019-05-13T06:59:14.418Z,59.80
2019-05-13T06:59:47.549Z,58.80
2019-05-13T07:00:21.606Z,59.30
2019-05-13T07:00:58.031Z,59.80
2019-05-13T07:01:32.096Z,60.20
2019-05-13T07:02:03.926Z,60.00
2019-05-13T07:02:36.871Z,59.50
2019-05-13T07:03:09.552Z,58.40
2019-05-13T07:03:42.203Z,59.30
2019-05-13T07:04:14.861Z,59.60
2019-05-13T07:04:47.839Z,58.10
2019-05-13T07:05:22.710Z,56.60
2019-05-13T07:05:54.979Z,55.60
2019-05-13T07:06:28.054Z,56.20
2019-05-13T07:07:09.840Z,55.00
2019-05-13T07:07:35.595Z,55.10
2019-05-13T07:08:08.238Z,55.00
2019-05-13T07:08:41.845Z,54.80
2019-05-13T07:09:14.684Z,54.90
2019-05-13T07:09:47.328Z,55.40
2019-05-13T07:10:21.688Z,54.30
2019-05-13T07:10:54.783Z,53.10
2019-05-13T07:11:27.453Z,52.90
2019-05-13T07:12:02.520Z,53.30
2019-05-13T07:12:34.791Z,54.20
2019-05-13T07:13:07.437Z,53.60
2019-05-13T07:13:42.143Z,53.60
2019-05-13T07:14:14.512Z,53.70
2019-05-13T07:14:47.167Z,53.90
2019-05-13T07:15:22.359Z,54.30
2019-05-13T07:15:54.364Z,54.00
2019-05-13T07:16:27.408Z,53.90
2019-05-13T07:17:01.904Z,54.30
2019-05-13T07:17:34.479Z,55.40
2019-05-13T07:18:07.143Z,56.10
2019-05-13T07:18:41.503Z,57.10
2019-05-13T07:19:14.249Z,55.20
2019-05-13T07:19:47.292Z,52.60
2019-05-13T07:20:22.577Z,51.00
2019-05-13T07:20:55.194Z,50.70
2019-05-13T07:21:28.523Z,51.10
2019-05-13T07:22:02.770Z,51.30
2019-05-13T07:22:35.912Z,52.10
2019-05-13T07:23:08.583Z,51.90
2019-05-13T07:23:42.280Z,50.60
2019-05-13T07:24:15.373Z,50.30
2019-05-13T07:24:48.030Z,50.10
2019-05-13T07:25:22.185Z,51.30
2019-05-13T07:25:55.362Z,51.10
2019-05-13T07:26:28.360Z,52.00
2019-05-13T07:27:01.892Z,50.90
2019-05-13T07:27:34.876Z,50.40
2019-05-13T07:28:07.527Z,50.80
2019-05-13T07:28:42.656Z,51.30
2019-05-13T07:29:15.166Z,50.50
2019-05-13T07:29:48.644Z,50.00
2019-05-13T07:30:37.263Z,50.40
2019-05-13T07:31:11.565Z,50.40
2019-05-13T07:31:44.367Z,50.80
2019-05-13T07:32:17.332Z,49.50
2019-05-13T07:32:52.269Z,47.70